createdAt,value
2023-01-23T00:02:32.238Z,74.28
2023-01-23T00:07:34.827Z,74.40
2023-01-23T00:12:40.902Z,74.14
2023-01-23T00:17:45.309Z,73.80
2023-01-23T00:22:47.858Z,74.28
2023-01-23T00:27:50.411Z,73.92
2023-01-23T00:32:53.051Z,74.05
2023-01-23T00:37:55.869Z,74.51
2023-01-23T00:42:58.930Z,74.08
2023-01-23T00:48:01.452Z,74.34
2023-01-23T00:53:04.036Z,74.33
2023-01-23T00:58:06.686Z,73.81
2023-01-23T01:03:09.350Z,74.15
2023-01-23T01:08:12.034Z,73.97
2023-01-23T01:13:14.703Z,73.73
2023-01-23T01:18:18.434Z,74.01
2023-01-23T01:23:21.550Z,73.72
2023-01-23T01:28:24.227Z,74.03
2023-01-23T01:33:28.365Z,74.10
2023-01-23T01:38:31.844Z,73.79
2023-01-23T01:43:35.270Z,73.97
2023-01-23T01:48:59.305Z,73.69
2023-01-23T01:54:13.874Z,74.41
2023-01-23T01:59:18.392Z,74.67
2023-01-23T02:04:21.406Z,75.68
2023-01-23T02:09:27.320Z,75.77
2023-01-23T02:14:30.182Z,76.03
2023-01-23T02:20:06.672Z,75.91
2023-01-23T02:25:13.765Z,75.09
2023-01-23T02:30:18.851Z,75.69
2023-01-23T02:35:31.472Z,75.77
2023-01-23T02:40:42.461Z,75.74
2023-01-23T02:45:49.315Z,75.71
2023-01-23T02:50:52.029Z,75.89
2023-01-23T02:55:54.631Z,76.27
2023-01-23T03:00:58.956Z,76.74
2023-01-23T03:06:04.172Z,76.19
2023-01-23T03:11:06.743Z,76.07
2023-01-23T03:16:10.845Z,76.04
2023-01-23T03:21:13.971Z,76.41
2023-01-23T03:26:18.133Z,76.63
2023-01-23T03:31:22.510Z,75.96
2023-01-23T03:36:25.197Z,75.80
2023-01-23T03:41:28.750Z,76.54
2023-01-23T03:46:36.573Z,76.90
2023-01-23T03:51:39.211Z,76.55
2023-01-23T03:56:42.575Z,76.79
2023-01-23T04:02:00.757Z,76.42
2023-01-23T04:07:04.509Z,76.32
2023-01-23T04:12:08.182Z,75.69
2023-01-23T04:17:14.870Z,75.93
2023-01-23T04:22:17.605Z,76.46
2023-01-23T04:27:23.547Z,75.89
2023-01-23T04:32:27.257Z,76.40
2023-01-23T04:37:29.993Z,76.25
2023-01-23T04:42:32.656Z,76.46
2023-01-23T04:47:44.494Z,76.25
2023-01-23T04:52:49.521Z,75.80
2023-01-23T04:57:52.124Z,75.38
2023-01-23T05:02:59.420Z,75.42
2023-01-23T05:08:05.275Z,75.29
2023-01-23T05:13:10.408Z,75.09
2023-01-23T05:18:13.035Z,75.08
2023-01-23T05:23:15.869Z,75.58
2023-01-23T05:28:25.433Z,75.73
2023-01-23T05:33:31.226Z,75.41
2023-01-23T05:38:35.323Z,76.11
2023-01-23T05:43:39.021Z,75.86
2023-01-23T05:48:42.592Z,75.43
2023-01-23T05:53:46.915Z,75.55
2023-01-23T05:58:50.234Z,76.20
2023-01-23T06:03:58.974Z,76.77
2023-01-23T06:09:12.324Z,76.74
2023-01-23T06:14:17.408Z,76.94
2023-01-23T06:19:20.261Z,76.24
2023-01-23T06:24:22.915Z,76.67
2023-01-23T06:29:25.973Z,76.73
2023-01-23T06:34:28.754Z,76.53
2023-01-23T06:39:34.841Z,76.43
2023-01-23T06:44:40.527Z,76.53
2023-01-23T06:49:43.490Z,77.20
2023-01-23T06:54:46.545Z,76.61
2023-01-23T06:59:49.783Z,76.64
2023-01-23T07:04:54.910Z,77.08
2023-01-23T07:09:57.566Z,76.36
2023-01-23T07:15:01.977Z,76.13
2023-01-23T07:20:11.640Z,75.90
2023-01-23T07:25:25.489Z,76.15
2023-01-23T07:30:29.442Z,76.54
2023-01-23T07:35:32.618Z,77.00
2023-01-23T07:40:39.145Z,77.44
2023-01-23T07:45:41.993Z,77.10
2023-01-23T07:50:45.244Z,76.95
2023-01-23T07:55:47.829Z,76.09
2023-01-23T08:00:50.421Z,76.09
2023-01-23T08:05:52.957Z,76.37
2023-01-23T08:10:55.501Z,75.96
2023-01-23T08:15:58.919Z,76.19
2023-01-23T08:21:03.444Z,75.56
2023-01-23T08:26:08.871Z,76.66
2023-01-23T08:31:13.114Z,76.29
2023-01-23T08:36:15.853Z,76.67
2023-01-23T08:41:18.620Z,76.25
2023-01-23T08:46:21.447Z,76.32
2023-01-23T08:51:24.297Z,75.92
2023-01-23T08:56:26.885Z,75.09
2023-01-23T09:01:29.566Z,75.23
2023-01-23T09:06:32.101Z,75.31
2023-01-23T09:11:34.726Z,75.73
2023-01-23T09:16:37.343Z,75.58
2023-01-23T09:21:40.088Z,75.35
2023-01-23T09:26:43.722Z,75.19
2023-01-23T09:31:46.494Z,74.83
2023-01-23T09:36:49.329Z,75.07
2023-01-23T09:41:52.102Z,76.12
2023-01-23T09:47:02.764Z,76.04
2023-01-23T09:52:12.429Z,74.90
2023-01-23T09:57:19.600Z,74.79
2023-01-23T10:02:26.564Z,74.78
2023-01-23T10:07:35.678Z,74.84
2023-01-23T10:12:42.787Z,74.20
2023-01-23T10:18:09.393Z,74.23
2023-01-23T10:23:24.687Z,73.77
2023-01-23T10:28:38.260Z,73.39
2023-01-23T10:33:47.819Z,73.11
2023-01-23T10:39:00.835Z,72.52
2023-01-23T10:44:18.863Z,72.10
2023-01-23T10:49:40.365Z,71.37
2023-01-23T10:54:49.632Z,71.63
2023-01-23T10:59:55.685Z,71.77
2023-01-23T11:04:59.306Z,71.38
2023-01-23T11:10:18.575Z,70.75
2023-01-23T11:15:29.759Z,70.69
2023-01-23T11:20:42.974Z,70.26
2023-01-23T11:25:50.233Z,69.88
2023-01-23T11:31:17.795Z,69.81
2023-01-23T11:36:20.510Z,70.36
2023-01-23T11:41:35.201Z,70.38
2023-01-23T11:46:52.678Z,69.95
2023-01-23T11:52:17.559Z,69.75
2023-01-23T11:57:42.386Z,69.71
2023-01-23T12:03:00.286Z,69.60
2023-01-23T12:08:22.255Z,70.50
2023-01-23T12:13:57.667Z,70.63
2023-01-23T12:19:16.535Z,70.08
2023-01-23T12:24:56.202Z,70.08
2023-01-23T12:30:50.492Z,70.85
2023-01-23T12:36:08.543Z,70.26
2023-01-23T12:41:37.939Z,70.30
2023-01-23T12:46:58.624Z,70.58
2023-01-23T12:52:25.703Z,71.49
2023-01-23T12:58:00.190Z,71.21
2023-01-23T13:03:54.729Z,71.13
2023-01-23T13:09:25.277Z,71.20
2023-01-23T13:14:36.753Z,70.62
2023-01-23T13:20:01.435Z,71.49
2023-01-23T13:25:20.037Z,71.87
2023-01-23T13:30:40.763Z,71.78
2023-01-23T13:35:49.891Z,72.16
2023-01-23T13:41:18.701Z,72.02
2023-01-23T14:25:29.731Z,72.59
2023-01-23T14:30:32.371Z,72.43
2023-01-23T14:35:35.682Z,72.62
2023-01-23T14:40:50.566Z,72.47
2023-01-23T14:46:08.037Z,72.60
2023-01-23T14:51:31.088Z,72.77
2023-01-23T14:56:43.964Z,73.18
2023-01-23T15:02:05.334Z,73.04
2023-01-23T15:07:17.613Z,72.68
2023-01-23T15:12:20.262Z,72.23
2023-01-23T15:17:23.155Z,73.09
2023-01-23T15:22:29.128Z,72.67
2023-01-23T15:27:33.913Z,73.25
2023-01-23T15:32:39.034Z,73.31
2023-01-23T15:37:47.301Z,72.56
2023-01-23T15:43:11.625Z,72.60
2023-01-23T15:48:14.260Z,72.77
2023-01-23T15:53:16.908Z,73.03
2023-01-23T15:58:19.483Z,73.55
2023-01-23T16:03:22.388Z,73.05
2023-01-23T16:08:25.418Z,73.00
2023-01-23T16:13:27.963Z,73.51
2023-01-23T16:18:31.762Z,73.28
2023-01-23T16:23:46.299Z,73.44
2023-01-23T16:28:50.459Z,72.88
2023-01-23T16:33:53.112Z,73.50
2023-01-23T16:38:56.656Z,73.58
2023-01-23T16:43:59.870Z,73.25
2023-01-23T16:49:02.649Z,73.96
2023-01-23T16:54:17.630Z,74.13
2023-01-23T16:59:35.742Z,73.80
2023-01-23T17:04:38.386Z,74.32
2023-01-23T17:09:41.056Z,73.54
2023-01-23T17:14:46.131Z,73.15
2023-01-23T17:19:48.760Z,73.37
2023-01-23T17:24:51.559Z,73.57
2023-01-23T17:29:54.143Z,73.39
2023-01-23T17:34:59.769Z,74.12
2023-01-23T17:40:04.455Z,74.09
2023-01-23T17:45:08.897Z,73.32
2023-01-23T17:50:23.385Z,73.05
2023-01-23T17:55:32.477Z,73.47
2023-01-23T18:00:35.675Z,74.16
2023-01-23T18:05:38.352Z,74.02
2023-01-23T18:10:44.299Z,74.16
2023-01-23T18:16:09.095Z,73.87
2023-01-23T18:21:20.655Z,74.71
2023-01-23T18:26:48.047Z,74.56
2023-01-23T18:32:08.987Z,73.85
2023-01-23T18:37:53.742Z,74.12
2023-01-23T18:43:14.587Z,74.82
2023-01-23T18:48:25.142Z,74.29
2023-01-23T18:53:47.061Z,74.33
2023-01-23T18:59:12.598Z,73.78
2023-01-23T19:04:30.447Z,74.74
2023-01-23T19:09:38.290Z,74.65
2023-01-23T19:15:31.646Z,74.01
2023-01-23T19:20:49.624Z,74.12
2023-01-23T19:25:55.841Z,73.68
2023-01-23T19:31:00.087Z,74.38
2023-01-23T19:36:02.780Z,75.44
2023-01-23T19:41:19.653Z,75.39
2023-01-23T19:46:29.793Z,74.72
2023-01-23T19:51:42.476Z,74.14
2023-01-23T19:56:51.736Z,74.56
2023-01-23T20:01:54.632Z,74.69
2023-01-23T20:06:57.449Z,75.13
2023-01-23T20:12:02.777Z,74.85
2023-01-23T20:17:05.587Z,74.96
2023-01-23T20:22:10.460Z,75.04
2023-01-23T20:27:13.191Z,75.37
2023-01-23T20:32:19.951Z,75.05
2023-01-23T20:37:22.542Z,75.93
2023-01-23T20:42:29.275Z,75.75
2023-01-23T20:47:34.237Z,75.27
2023-01-23T20:52:57.800Z,75.43
2023-01-23T20:58:19.056Z,75.31
2023-01-23T21:03:22.054Z,75.16
2023-01-23T21:08:27.725Z,75.23
2023-01-23T21:13:33.570Z,75.36
2023-01-23T21:18:37.169Z,74.56
2023-01-23T21:23:44.778Z,75.35
2023-01-23T21:28:53.354Z,75.61
2023-01-23T21:34:00.291Z,74.92
2023-01-23T21:39:08.656Z,75.09
2023-01-23T21:44:13.107Z,74.56
2023-01-23T21:49:17.976Z,75.78
2023-01-23T21:54:20.711Z,75.82
2023-01-23T21:59:27.072Z,75.68
2023-01-23T22:04:29.906Z,75.35
2023-01-23T22:09:32.668Z,74.79
2023-01-23T22:14:35.378Z,74.77
2023-01-23T22:19:37.910Z,75.26
2023-01-23T22:24:40.541Z,75.80
2023-01-23T22:29:47.141Z,75.56
2023-01-23T22:34:52.364Z,74.61
2023-01-23T22:39:57.953Z,74.35
2023-01-23T22:45:00.629Z,74.90
2023-01-23T22:50:03.567Z,75.12
2023-01-23T22:55:06.563Z,75.39
2023-01-23T23:00:15.244Z,75.56
2023-01-23T23:05:21.997Z,76.71
2023-01-23T23:10:24.990Z,76.34
2023-01-23T23:15:28.417Z,75.67
2023-01-23T23:20:32.050Z,76.58
2023-01-23T23:25:37.824Z,76.74
2023-01-23T23:30:40.339Z,76.56
2023-01-23T23:35:43.806Z,75.74
2023-01-23T23:40:58.313Z,75.62
2023-01-23T23:46:03.791Z,75.66
2023-01-23T23:51:08.666Z,74.93
2023-01-23T23:56:20.307Z,74.79
